sensor_id;sensor_type;location;lat;lon;timestamp;temperature;humidity
13572;DHT22;6857;53.484;10.216;2023-10-19T00:02:06;8.00;99.90
13572;DHT22;6857;53.484;10.216;2023-10-19T00:04:36;8.00;99.90
13572;DHT22;6857;53.484;10.216;2023-10-19T00:07:02;8.00;99.90
13572;DHT22;6857;53.484;10.216;2023-10-19T00:09:30;8.10;99.90
13572;DHT22;6857;53.484;10.216;2023-10-19T00:12:01;8.00;99.90
13572;DHT22;6857;53.484;10.216;2023-10-19T00:14:27;8.00;99.90
13572;DHT22;6857;53.484;10.216;2023-10-19T00:16:53;8.00;99.90
13572;DHT22;6857;53.484;10.216;2023-10-19T00:19:19;8.00;99.90
13572;DHT22;6857;53.484;10.216;2023-10-19T00:21:45;8.00;99.90
13572;DHT22;6857;53.484;10.216;2023-10-19T00:24:20;8.00;99.90
13572;DHT22;6857;53.484;10.216;2023-10-19T00:26:48;8.00;99.90
13572;DHT22;6857;53.484;10.216;2023-10-19T00:29:15;8.00;99.90
13572;DHT22;6857;53.484;10.216;2023-10-19T00:31:59;8.00;99.90
13572;DHT22;6857;53.484;10.216;2023-10-19T00:34:28;8.00;99.90
13572;DHT22;6857;53.484;10.216;2023-10-19T00:36:55;8.00;99.90
13572;DHT22;6857;53.484;10.216;2023-10-19T00:39:34;8.00;99.90
13572;DHT22;6857;53.484;10.216;2023-10-19T00:42:09;8.00;99.90
13572;DHT22;6857;53.484;10.216;2023-10-19T00:44:34;8.00;99.90
13572;DHT22;6857;53.484;10.216;2023-10-19T00:47:03;8.00;99.90
13572;DHT22;6857;53.484;10.216;2023-10-19T00:49:32;8.00;99.90
13572;DHT22;6857;53.484;10.216;2023-10-19T00:52:00;8.00;99.90
13572;DHT22;6857;53.484;10.216;2023-10-19T00:54:38;8.00;99.90
13572;DHT22;6857;53.484;10.216;2023-10-19T00:57:17;8.00;99.90
13572;DHT22;6857;53.484;10.216;2023-10-19T00:59:46;8.00;99.90
13572;DHT22;6857;53.484;10.216;2023-10-19T01:02:20;8.00;99.90
13572;DHT22;6857;53.484;10.216;2023-10-19T01:04:55;8.00;99.90
13572;DHT22;6857;53.484;10.216;2023-10-19T01:07:31;8.00;99.90
13572;DHT22;6857;53.484;10.216;2023-10-19T01:10:03;8.00;99.90
13572;DHT22;6857;53.484;10.216;2023-10-19T01:12:31;8.00;99.90
13572;DHT22;6857;53.484;10.216;2023-10-19T01:17:36;8.00;99.90
13572;DHT22;6857;53.484;10.216;2023-10-19T01:20:09;8.00;99.90
13572;DHT22;6857;53.484;10.216;2023-10-19T01:25:14;8.00;99.90
13572;DHT22;6857;53.484;10.216;2023-10-19T01:27:49;8.00;99.90
13572;DHT22;6857;53.484;10.216;2023-10-19T01:30:19;8.00;99.90
13572;DHT22;6857;53.484;10.216;2023-10-19T01:32:45;8.00;99.90
13572;DHT22;6857;53.484;10.216;2023-10-19T01:35:10;8.00;99.90
13572;DHT22;6857;53.484;10.216;2023-10-19T01:37:36;8.00;99.90
13572;DHT22;6857;53.484;10.216;2023-10-19T01:40:03;8.00;99.90
13572;DHT22;6857;53.484;10.216;2023-10-19T01:42:30;8.00;99.90
13572;DHT22;6857;53.484;10.216;2023-10-19T01:44:56;8.00;99.90
13572;DHT22;6857;53.484;10.216;2023-10-19T01:47:21;8.00;99.90
13572;DHT22;6857;53.484;10.216;2023-10-19T01:49:48;8.00;99.90
13572;DHT22;6857;53.484;10.216;2023-10-19T01:52:17;8.00;99.90
13572;DHT22;6857;53.484;10.216;2023-10-19T01:54:43;8.00;99.90
13572;DHT22;6857;53.484;10.216;2023-10-19T01:57:09;8.00;99.90
13572;DHT22;6857;53.484;10.216;2023-10-19T01:59:35;8.00;99.90
13572;DHT22;6857;53.484;10.216;2023-10-19T02:02:00;8.00;99.90
13572;DHT22;6857;53.484;10.216;2023-10-19T02:04:27;8.00;99.90
13572;DHT22;6857;53.484;10.216;2023-10-19T02:06:53;8.00;99.90
13572;DHT22;6857;53.484;10.216;2023-10-19T02:09:19;8.00;99.90
13572;DHT22;6857;53.484;10.216;2023-10-19T02:11:49;8.00;99.90
13572;DHT22;6857;53.484;10.216;2023-10-19T02:14:18;8.00;99.90
13572;DHT22;6857;53.484;10.216;2023-10-19T02:16:49;8.00;99.90
13572;DHT22;6857;53.484;10.216;2023-10-19T02:19:18;8.00;99.90
13572;DHT22;6857;53.484;10.216;2023-10-19T02:21:52;8.00;99.90
13572;DHT22;6857;53.484;10.216;2023-10-19T02:24:18;8.00;99.90
13572;DHT22;6857;53.484;10.216;2023-10-19T02:26:45;8.00;99.90
13572;DHT22;6857;53.484;10.216;2023-10-19T02:29:12;8.00;99.90
13572;DHT22;6857;53.484;10.216;2023-10-19T02:31:40;8.00;99.90
13572;DHT22;6857;53.484;10.216;2023-10-19T02:34:07;8.00;99.90
13572;DHT22;6857;53.484;10.216;2023-10-19T02:36:34;8.10;99.90
13572;DHT22;6857;53.484;10.216;2023-10-19T02:39:04;8.00;99.90
13572;DHT22;6857;53.484;10.216;2023-10-19T02:41:37;8.00;99.90
13572;DHT22;6857;53.484;10.216;2023-10-19T02:44:11;8.00;99.90
13572;DHT22;6857;53.484;10.216;2023-10-19T02:49:12;8.00;99.90
13572;DHT22;6857;53.484;10.216;2023-10-19T02:51:50;8.00;99.90
13572;DHT22;6857;53.484;10.216;2023-10-19T02:54:25;8.10;99.90
13572;DHT22;6857;53.484;10.216;2023-10-19T02:56:52;8.00;99.90
13572;DHT22;6857;53.484;10.216;2023-10-19T02:59:20;8.00;99.90
13572;DHT22;6857;53.484;10.216;2023-10-19T03:01:53;8.00;99.90
13572;DHT22;6857;53.484;10.216;2023-10-19T03:04:26;8.10;99.90
13572;DHT22;6857;53.484;10.216;2023-10-19T03:06:54;8.10;99.90
13572;DHT22;6857;53.484;10.216;2023-10-19T03:09:21;8.10;99.90
13572;DHT22;6857;53.484;10.216;2023-10-19T03:11:56;8.10;99.90
13572;DHT22;6857;53.484;10.216;2023-10-19T03:14:29;8.10;99.90
13572;DHT22;6857;53.484;10.216;2023-10-19T03:16:56;8.10;99.90
13572;DHT22;6857;53.484;10.216;2023-10-19T03:19:23;8.10;99.90
13572;DHT22;6857;53.484;10.216;2023-10-19T03:21:52;8.10;99.90
13572;DHT22;6857;53.484;10.216;2023-10-19T03:24:19;8.00;99.90
13572;DHT22;6857;53.484;10.216;2023-10-19T03:27:08;7.90;99.90
13572;DHT22;6857;53.484;10.216;2023-10-19T03:32:21;7.80;99.90
13572;DHT22;6857;53.484;10.216;2023-10-19T03:34:51;7.70;99.90
13572;DHT22;6857;53.484;10.216;2023-10-19T03:37:22;7.70;99.90
13572;DHT22;6857;53.484;10.216;2023-10-19T03:39:48;7.60;99.90
13572;DHT22;6857;53.484;10.216;2023-10-19T03:42:14;7.60;99.90
13572;DHT22;6857;53.484;10.216;2023-10-19T03:44:40;7.50;99.90
13572;DHT22;6857;53.484;10.216;2023-10-19T03:47:14;7.50;99.90
13572;DHT22;6857;53.484;10.216;2023-10-19T03:49:44;7.40;99.90
13572;DHT22;6857;53.484;10.216;2023-10-19T03:52:12;7.40;99.90
13572;DHT22;6857;53.484;10.216;2023-10-19T03:54:37;7.30;99.90
13572;DHT22;6857;53.484;10.216;2023-10-19T03:57:13;7.30;99.90
13572;DHT22;6857;53.484;10.216;2023-10-19T03:59:44;7.20;99.90
13572;DHT22;6857;53.484;10.216;2023-10-19T04:02:10;7.20;99.90
13572;DHT22;6857;53.484;10.216;2023-10-19T04:04:43;7.20;99.90
13572;DHT22;6857;53.484;10.216;2023-10-19T04:07:10;7.10;99.90
13572;DHT22;6857;53.484;10.216;2023-10-19T04:09:48;7.10;99.90
13572;DHT22;6857;53.484;10.216;2023-10-19T04:12:36;7.10;99.90
13572;DHT22;6857;53.484;10.216;2023-10-19T04:15:06;7.00;99.90
13572;DHT22;6857;53.484;10.216;2023-10-19T04:17:45;7.00;99.90
13572;DHT22;6857;53.484;10.216;2023-10-19T04:20:12;7.00;99.90
13572;DHT22;6857;53.484;10.216;2023-10-19T04:22:47;7.00;99.90
13572;DHT22;6857;53.484;10.216;2023-10-19T04:25:13;7.00;99.90
13572;DHT22;6857;53.484;10.216;2023-10-19T04:27:39;6.90;99.90
13572;DHT22;6857;53.484;10.216;2023-10-19T04:30:08;6.90;99.90
13572;DHT22;6857;53.484;10.216;2023-10-19T04:32:44;6.90;99.90
13572;DHT22;6857;53.484;10.216;2023-10-19T04:35:10;6.90;99.90
13572;DHT22;6857;53.484;10.216;2023-10-19T04:37:38;6.90;99.90
13572;DHT22;6857;53.484;10.216;2023-10-19T04:40:08;6.90;99.90
13572;DHT22;6857;53.484;10.216;2023-10-19T04:42:34;6.80;99.90
13572;DHT22;6857;53.484;10.216;2023-10-19T04:44:59;6.80;99.90
13572;DHT22;6857;53.484;10.216;2023-10-19T04:47:25;6.80;99.90
13572;DHT22;6857;53.484;10.216;2023-10-19T04:49:51;6.80;99.90
13572;DHT22;6857;53.484;10.216;2023-10-19T04:52:16;6.80;99.90
13572;DHT22;6857;53.484;10.216;2023-10-19T04:54:42;6.90;99.90
13572;DHT22;6857;53.484;10.216;2023-10-19T04:57:08;6.90;99.90
13572;DHT22;6857;53.484;10.216;2023-10-19T04:59:33;6.80;99.90
13572;DHT22;6857;53.484;10.216;2023-10-19T05:01:59;6.80;99.90
13572;DHT22;6857;53.484;10.216;2023-10-19T05:04:28;6.80;99.90
13572;DHT22;6857;53.484;10.216;2023-10-19T05:06:54;6.80;99.90
13572;DHT22;6857;53.484;10.216;2023-10-19T05:09:20;6.80;99.90
13572;DHT22;6857;53.484;10.216;2023-10-19T05:11:46;6.80;99.90
13572;DHT22;6857;53.484;10.216;2023-10-19T05:14:13;6.80;99.90
13572;DHT22;6857;53.484;10.216;2023-10-19T05:16:39;6.80;99.90
13572;DHT22;6857;53.484;10.216;2023-10-19T05:19:05;6.80;99.90
13572;DHT22;6857;53.484;10.216;2023-10-19T05:21:31;6.80;99.90
13572;DHT22;6857;53.484;10.216;2023-10-19T05:23:56;6.80;99.90
13572;DHT22;6857;53.484;10.216;2023-10-19T05:26:22;6.80;99.90
13572;DHT22;6857;53.484;10.216;2023-10-19T05:28:48;6.80;99.90
13572;DHT22;6857;53.484;10.216;2023-10-19T05:31:14;6.80;99.90
13572;DHT22;6857;53.484;10.216;2023-10-19T05:33:40;6.80;99.90
13572;DHT22;6857;53.484;10.216;2023-10-19T05:36:06;6.80;99.90
13572;DHT22;6857;53.484;10.216;2023-10-19T05:38:32;6.90;99.90
13572;DHT22;6857;53.484;10.216;2023-10-19T05:40:58;6.90;99.90
13572;DHT22;6857;53.484;10.216;2023-10-19T05:43:25;6.90;99.90
13572;DHT22;6857;53.484;10.216;2023-10-19T05:45:50;6.90;99.90
13572;DHT22;6857;53.484;10.216;2023-10-19T05:48:20;6.90;99.90
13572;DHT22;6857;53.484;10.216;2023-10-19T05:50:45;6.90;99.90
13572;DHT22;6857;53.484;10.216;2023-10-19T05:53:11;6.90;99.90
13572;DHT22;6857;53.484;10.216;2023-10-19T05:55:37;6.90;99.90
13572;DHT22;6857;53.484;10.216;2023-10-19T05:58:05;6.90;99.90
13572;DHT22;6857;53.484;10.216;2023-10-19T06:00:31;7.00;99.90
13572;DHT22;6857;53.484;10.216;2023-10-19T06:02:56;6.90;99.90
13572;DHT22;6857;53.484;10.216;2023-10-19T06:05:25;6.90;99.90
13572;DHT22;6857;53.484;10.216;2023-10-19T06:07:50;6.90;99.90
13572;DHT22;6857;53.484;10.216;2023-10-19T06:10:19;6.90;99.90
13572;DHT22;6857;53.484;10.216;2023-10-19T06:12:47;6.90;99.90
13572;DHT22;6857;53.484;10.216;2023-10-19T06:15:14;6.90;99.90
13572;DHT22;6857;53.484;10.216;2023-10-19T06:17:41;6.90;99.90
13572;DHT22;6857;53.484;10.216;2023-10-19T06:20:08;6.90;99.90
13572;DHT22;6857;53.484;10.216;2023-10-19T06:22:48;6.90;99.90
13572;DHT22;6857;53.484;10.216;2023-10-19T06:25:19;6.90;99.90
13572;DHT22;6857;53.484;10.216;2023-10-19T06:27:47;6.90;99.90
13572;DHT22;6857;53.484;10.216;2023-10-19T06:30:14;6.90;99.90
13572;DHT22;6857;53.484;10.216;2023-10-19T06:32:47;6.90;99.90
13572;DHT22;6857;53.484;10.216;2023-10-19T06:35:13;6.90;99.90
13572;DHT22;6857;53.484;10.216;2023-10-19T06:37:38;6.80;99.90
13572;DHT22;6857;53.484;10.216;2023-10-19T06:40:06;6.80;99.90
13572;DHT22;6857;53.484;10.216;2023-10-19T06:42:31;6.80;99.90
13572;DHT22;6857;53.484;10.216;2023-10-19T06:44:57;6.80;99.90
13572;DHT22;6857;53.484;10.216;2023-10-19T06:47:22;6.80;99.90
13572;DHT22;6857;53.484;10.216;2023-10-19T06:49:49;6.80;99.90
13572;DHT22;6857;53.484;10.216;2023-10-19T06:52:15;6.80;99.90
13572;DHT22;6857;53.484;10.216;2023-10-19T06:54:41;6.90;99.90
13572;DHT22;6857;53.484;10.216;2023-10-19T06:57:07;6.90;99.90
13572;DHT22;6857;53.484;10.216;2023-10-19T06:59:35;6.90;99.90
13572;DHT22;6857;53.484;10.216;2023-10-19T07:02:01;6.90;99.90
13572;DHT22;6857;53.484;10.216;2023-10-19T07:04:27;6.90;99.90
13572;DHT22;6857;53.484;10.216;2023-10-19T07:06:53;7.20;99.90
13572;DHT22;6857;53.484;10.216;2023-10-19T07:09:19;7.00;99.90
13572;DHT22;6857;53.484;10.216;2023-10-19T07:11:44;7.00;99.90
13572;DHT22;6857;53.484;10.216;2023-10-19T07:14:11;7.00;99.90
13572;DHT22;6857;53.484;10.216;2023-10-19T07:19:04;7.00;99.90
13572;DHT22;6857;53.484;10.216;2023-10-19T07:21:30;7.00;99.90
13572;DHT22;6857;53.484;10.216;2023-10-19T07:24:01;7.00;99.90
13572;DHT22;6857;53.484;10.216;2023-10-19T07:26:31;7.00;99.90
13572;DHT22;6857;53.484;10.216;2023-10-19T07:28:59;7.00;99.90
13572;DHT22;6857;53.484;10.216;2023-10-19T07:31:25;7.00;99.90
13572;DHT22;6857;53.484;10.216;2023-10-19T07:33:53;7.00;99.90
13572;DHT22;6857;53.484;10.216;2023-10-19T07:36:20;7.10;99.90
13572;DHT22;6857;53.484;10.216;2023-10-19T07:38:46;7.00;99.90
13572;DHT22;6857;53.484;10.216;2023-10-19T07:41:13;7.10;99.90
13572;DHT22;6857;53.484;10.216;2023-10-19T07:43:39;7.10;99.90
13572;DHT22;6857;53.484;10.216;2023-10-19T07:46:04;7.10;99.90
13572;DHT22;6857;53.484;10.216;2023-10-19T07:48:30;7.20;99.90
13572;DHT22;6857;53.484;10.216;2023-10-19T07:50:56;7.20;99.90
13572;DHT22;6857;53.484;10.216;2023-10-19T07:53:22;7.20;99.90
13572;DHT22;6857;53.484;10.216;2023-10-19T07:55:48;7.20;99.90
13572;DHT22;6857;53.484;10.216;2023-10-19T07:58:13;7.20;99.90
13572;DHT22;6857;53.484;10.216;2023-10-19T08:00:39;7.20;99.90
13572;DHT22;6857;53.484;10.216;2023-10-19T08:03:05;7.20;99.90
13572;DHT22;6857;53.484;10.216;2023-10-19T08:05:31;7.70;99.90
13572;DHT22;6857;53.484;10.216;2023-10-19T08:07:58;8.80;99.90
13572;DHT22;6857;53.484;10.216;2023-10-19T08:10:25;9.30;99.90
13572;DHT22;6857;53.484;10.216;2023-10-19T08:12:52;8.80;99.90
13572;DHT22;6857;53.484;10.216;2023-10-19T08:15:19;8.30;99.90
13572;DHT22;6857;53.484;10.216;2023-10-19T08:17:47;7.90;99.90
13572;DHT22;6857;53.484;10.216;2023-10-19T08:20:14;7.70;99.90
13572;DHT22;6857;53.484;10.216;2023-10-19T08:22:51;7.50;99.90
13572;DHT22;6857;53.484;10.216;2023-10-19T08:25:18;7.50;99.90
13572;DHT22;6857;53.484;10.216;2023-10-19T08:27:45;7.40;99.90
13572;DHT22;6857;53.484;10.216;2023-10-19T08:30:14;7.40;99.90
13572;DHT22;6857;53.484;10.216;2023-10-19T08:32:43;7.40;99.90
13572;DHT22;6857;53.484;10.216;2023-10-19T08:35:09;7.40;99.90
13572;DHT22;6857;53.484;10.216;2023-10-19T08:37:38;7.40;99.90
13572;DHT22;6857;53.484;10.216;2023-10-19T08:40:09;7.40;99.90
13572;DHT22;6857;53.484;10.216;2023-10-19T08:42:40;7.40;99.90
13572;DHT22;6857;53.484;10.216;2023-10-19T08:45:06;7.40;99.90
13572;DHT22;6857;53.484;10.216;2023-10-19T08:47:35;7.40;99.90
13572;DHT22;6857;53.484;10.216;2023-10-19T08:50:03;7.30;99.90
13572;DHT22;6857;53.484;10.216;2023-10-19T08:52:30;7.30;99.90
13572;DHT22;6857;53.484;10.216;2023-10-19T08:54:57;7.30;99.90
13572;DHT22;6857;53.484;10.216;2023-10-19T08:57:23;7.30;99.90
13572;DHT22;6857;53.484;10.216;2023-10-19T08:59:49;7.30;99.90
13572;DHT22;6857;53.484;10.216;2023-10-19T09:02:15;7.40;99.90
13572;DHT22;6857;53.484;10.216;2023-10-19T09:04:43;7.40;99.90
13572;DHT22;6857;53.484;10.216;2023-10-19T09:07:11;7.50;99.90
13572;DHT22;6857;53.484;10.216;2023-10-19T09:09:37;7.50;99.90
13572;DHT22;6857;53.484;10.216;2023-10-19T09:12:07;7.50;99.90
13572;DHT22;6857;53.484;10.216;2023-10-19T09:14:34;7.40;99.90
13572;DHT22;6857;53.484;10.216;2023-10-19T09:17:08;7.40;99.90
13572;DHT22;6857;53.484;10.216;2023-10-19T09:19:46;7.40;99.90
13572;DHT22;6857;53.484;10.216;2023-10-19T09:22:14;7.40;99.90
13572;DHT22;6857;53.484;10.216;2023-10-19T09:24:51;7.40;99.90
13572;DHT22;6857;53.484;10.216;2023-10-19T09:27:22;7.50;99.90
13572;DHT22;6857;53.484;10.216;2023-10-19T09:29:48;7.40;99.90
13572;DHT22;6857;53.484;10.216;2023-10-19T09:32:16;7.40;99.90
13572;DHT22;6857;53.484;10.216;2023-10-19T09:34:42;7.30;99.90
13572;DHT22;6857;53.484;10.216;2023-10-19T09:37:10;7.40;99.90
13572;DHT22;6857;53.484;10.216;2023-10-19T09:39:35;7.30;99.90
13572;DHT22;6857;53.484;10.216;2023-10-19T09:42:03;7.40;99.90
13572;DHT22;6857;53.484;10.216;2023-10-19T09:44:39;7.40;99.90
13572;DHT22;6857;53.484;10.216;2023-10-19T09:47:13;7.40;99.90
13572;DHT22;6857;53.484;10.216;2023-10-19T09:49:41;7.40;99.90
13572;DHT22;6857;53.484;10.216;2023-10-19T09:52:08;7.40;99.90
13572;DHT22;6857;53.484;10.216;2023-10-19T09:57:13;7.40;99.90
13572;DHT22;6857;53.484;10.216;2023-10-19T09:59:45;7.40;99.90
13572;DHT22;6857;53.484;10.216;2023-10-19T10:02:16;7.50;99.90
13572;DHT22;6857;53.484;10.216;2023-10-19T10:04:44;7.50;99.90
13572;DHT22;6857;53.484;10.216;2023-10-19T10:07:11;7.50;99.90
13572;DHT22;6857;53.484;10.216;2023-10-19T10:09:40;7.50;99.90
13572;DHT22;6857;53.484;10.216;2023-10-19T10:12:19;7.60;99.90
13572;DHT22;6857;53.484;10.216;2023-10-19T10:14:58;7.60;99.90
13572;DHT22;6857;53.484;10.216;2023-10-19T10:17:25;7.60;99.90
13572;DHT22;6857;53.484;10.216;2023-10-19T10:19:54;7.60;99.90
13572;DHT22;6857;53.484;10.216;2023-10-19T10:22:21;7.60;99.90
13572;DHT22;6857;53.484;10.216;2023-10-19T10:24:47;7.70;99.90
13572;DHT22;6857;53.484;10.216;2023-10-19T10:27:19;7.70;99.90
13572;DHT22;6857;53.484;10.216;2023-10-19T10:29:55;7.70;99.90
13572;DHT22;6857;53.484;10.216;2023-10-19T10:32:44;7.70;99.90
13572;DHT22;6857;53.484;10.216;2023-10-19T10:35:09;7.60;99.90
13572;DHT22;6857;53.484;10.216;2023-10-19T10:37:38;7.60;99.90
13572;DHT22;6857;53.484;10.216;2023-10-19T10:40:06;7.60;99.90
13572;DHT22;6857;53.484;10.216;2023-10-19T10:42:31;7.60;99.90
13572;DHT22;6857;53.484;10.216;2023-10-19T10:44:59;7.60;99.90
13572;DHT22;6857;53.484;10.216;2023-10-19T10:47:25;7.70;99.90
13572;DHT22;6857;53.484;10.216;2023-10-19T10:49:58;7.70;99.90
13572;DHT22;6857;53.484;10.216;2023-10-19T10:52:32;7.70;99.90
13572;DHT22;6857;53.484;10.216;2023-10-19T10:55:05;7.60;99.90
13572;DHT22;6857;53.484;10.216;2023-10-19T10:57:32;7.60;99.90
13572;DHT22;6857;53.484;10.216;2023-10-19T11:00:16;7.60;99.90
13572;DHT22;6857;53.484;10.216;2023-10-19T11:02:44;7.60;99.90
13572;DHT22;6857;53.484;10.216;2023-10-19T11:05:14;7.70;99.90
13572;DHT22;6857;53.484;10.216;2023-10-19T11:10:28;7.70;99.90
13572;DHT22;6857;53.484;10.216;2023-10-19T11:13:05;7.70;99.90
13572;DHT22;6857;53.484;10.216;2023-10-19T11:15:31;7.80;99.90
13572;DHT22;6857;53.484;10.216;2023-10-19T11:17:58;7.80;99.90
13572;DHT22;6857;53.484;10.216;2023-10-19T11:20:25;7.80;99.90
13572;DHT22;6857;53.484;10.216;2023-10-19T11:22:53;7.80;99.90
13572;DHT22;6857;53.484;10.216;2023-10-19T11:25:25;7.80;99.90
13572;DHT22;6857;53.484;10.216;2023-10-19T11:27:57;7.80;99.90
13572;DHT22;6857;53.484;10.216;2023-10-19T11:30:25;7.90;99.90
13572;DHT22;6857;53.484;10.216;2023-10-19T11:32:51;7.90;99.90
13572;DHT22;6857;53.484;10.216;2023-10-19T11:35:23;7.90;99.90
13572;DHT22;6857;53.484;10.216;2023-10-19T11:37:50;7.90;99.90
13572;DHT22;6857;53.484;10.216;2023-10-19T11:40:16;7.90;99.90
13572;DHT22;6857;53.484;10.216;2023-10-19T11:42:42;7.90;99.90
13572;DHT22;6857;53.484;10.216;2023-10-19T11:45:08;8.00;99.90
13572;DHT22;6857;53.484;10.216;2023-10-19T11:47:34;7.90;99.90
13572;DHT22;6857;53.484;10.216;2023-10-19T11:50:00;7.90;99.90
13572;DHT22;6857;53.484;10.216;2023-10-19T11:52:25;7.90;99.90
13572;DHT22;6857;53.484;10.216;2023-10-19T11:54:53;7.90;99.90
13572;DHT22;6857;53.484;10.216;2023-10-19T11:57:19;7.90;99.90
13572;DHT22;6857;53.484;10.216;2023-10-19T11:59:45;7.90;99.90
13572;DHT22;6857;53.484;10.216;2023-10-19T12:02:10;7.90;99.90
13572;DHT22;6857;53.484;10.216;2023-10-19T12:04:37;7.90;99.90
13572;DHT22;6857;53.484;10.216;2023-10-19T12:07:02;7.90;99.90
13572;DHT22;6857;53.484;10.216;2023-10-19T12:09:29;7.90;99.90
13572;DHT22;6857;53.484;10.216;2023-10-19T12:11:55;7.90;99.90
13572;DHT22;6857;53.484;10.216;2023-10-19T12:14:21;8.00;99.90
13572;DHT22;6857;53.484;10.216;2023-10-19T12:16:48;8.00;99.90
13572;DHT22;6857;53.484;10.216;2023-10-19T12:19:14;8.10;99.90
13572;DHT22;6857;53.484;10.216;2023-10-19T12:21:40;8.10;99.90
13572;DHT22;6857;53.484;10.216;2023-10-19T12:24:09;8.10;99.90
13572;DHT22;6857;53.484;10.216;2023-10-19T12:26:35;8.10;99.90
13572;DHT22;6857;53.484;10.216;2023-10-19T12:29:01;8.10;99.90
13572;DHT22;6857;53.484;10.216;2023-10-19T12:31:26;8.10;99.90
13572;DHT22;6857;53.484;10.216;2023-10-19T12:33:52;8.10;99.90
13572;DHT22;6857;53.484;10.216;2023-10-19T12:36:18;8.10;99.90
13572;DHT22;6857;53.484;10.216;2023-10-19T12:39:10;8.20;99.90
13572;DHT22;6857;53.484;10.216;2023-10-19T12:41:41;8.10;99.90
13572;DHT22;6857;53.484;10.216;2023-10-19T12:44:07;8.10;99.90
13572;DHT22;6857;53.484;10.216;2023-10-19T12:46:34;8.10;99.90
13572;DHT22;6857;53.484;10.216;2023-10-19T12:49:04;8.20;99.90
13572;DHT22;6857;53.484;10.216;2023-10-19T12:51:33;8.20;99.90
13572;DHT22;6857;53.484;10.216;2023-10-19T12:53:59;8.20;99.90
13572;DHT22;6857;53.484;10.216;2023-10-19T12:56:28;8.10;99.90
13572;DHT22;6857;53.484;10.216;2023-10-19T12:58:54;8.10;99.90
13572;DHT22;6857;53.484;10.216;2023-10-19T13:01:20;8.10;99.90
13572;DHT22;6857;53.484;10.216;2023-10-19T13:03:47;8.10;99.90
13572;DHT22;6857;53.484;10.216;2023-10-19T13:06:14;8.10;99.90
13572;DHT22;6857;53.484;10.216;2023-10-19T13:08:40;8.10;99.90
13572;DHT22;6857;53.484;10.216;2023-10-19T13:11:07;8.10;99.90
13572;DHT22;6857;53.484;10.216;2023-10-19T13:13:33;8.10;99.90
13572;DHT22;6857;53.484;10.216;2023-10-19T13:16:01;8.10;99.90
13572;DHT22;6857;53.484;10.216;2023-10-19T13:18:31;8.10;99.90
13572;DHT22;6857;53.484;10.216;2023-10-19T13:20:59;8.10;99.90
13572;DHT22;6857;53.484;10.216;2023-10-19T13:23:30;8.10;99.90
13572;DHT22;6857;53.484;10.216;2023-10-19T13:25:58;8.10;99.90
13572;DHT22;6857;53.484;10.216;2023-10-19T13:28:34;8.10;99.90
13572;DHT22;6857;53.484;10.216;2023-10-19T13:31:04;8.20;99.90
13572;DHT22;6857;53.484;10.216;2023-10-19T13:33:29;8.20;99.90
13572;DHT22;6857;53.484;10.216;2023-10-19T13:35:55;8.20;99.90
13572;DHT22;6857;53.484;10.216;2023-10-19T13:38:20;8.10;99.90
13572;DHT22;6857;53.484;10.216;2023-10-19T13:40:46;8.20;99.90
13572;DHT22;6857;53.484;10.216;2023-10-19T13:43:13;8.20;99.90
13572;DHT22;6857;53.484;10.216;2023-10-19T13:45:44;8.20;99.90
13572;DHT22;6857;53.484;10.216;2023-10-19T13:48:10;8.30;99.90
13572;DHT22;6857;53.484;10.216;2023-10-19T13:50:47;8.20;99.90
13572;DHT22;6857;53.484;10.216;2023-10-19T13:53:17;8.20;99.90
13572;DHT22;6857;53.484;10.216;2023-10-19T13:55:42;8.30;99.90
13572;DHT22;6857;53.484;10.216;2023-10-19T13:58:08;8.30;99.90
13572;DHT22;6857;53.484;10.216;2023-10-19T14:00:34;8.40;99.90
13572;DHT22;6857;53.484;10.216;2023-10-19T14:03:00;8.40;99.90
13572;DHT22;6857;53.484;10.216;2023-10-19T14:05:27;8.40;99.90
13572;DHT22;6857;53.484;10.216;2023-10-19T14:07:53;8.40;99.90
13572;DHT22;6857;53.484;10.216;2023-10-19T14:10:19;8.40;99.90
13572;DHT22;6857;53.484;10.216;2023-10-19T14:12:48;8.40;99.90
13572;DHT22;6857;53.484;10.216;2023-10-19T14:15:18;8.40;99.90
13572;DHT22;6857;53.484;10.216;2023-10-19T14:17:45;8.40;99.90
13572;DHT22;6857;53.484;10.216;2023-10-19T14:20:12;8.40;99.90
13572;DHT22;6857;53.484;10.216;2023-10-19T14:22:56;8.50;99.90
13572;DHT22;6857;53.484;10.216;2023-10-19T14:25:22;8.50;99.90
13572;DHT22;6857;53.484;10.216;2023-10-19T14:27:53;8.50;99.90
13572;DHT22;6857;53.484;10.216;2023-10-19T14:30:25;8.50;99.90
13572;DHT22;6857;53.484;10.216;2023-10-19T14:32:51;8.50;99.90
13572;DHT22;6857;53.484;10.216;2023-10-19T14:35:19;8.40;99.90
13572;DHT22;6857;53.484;10.216;2023-10-19T14:37:47;8.50;99.90
13572;DHT22;6857;53.484;10.216;2023-10-19T14:40:17;8.40;99.90
13572;DHT22;6857;53.484;10.216;2023-10-19T14:42:45;8.40;99.90
13572;DHT22;6857;53.484;10.216;2023-10-19T14:45:12;8.40;99.90
13572;DHT22;6857;53.484;10.216;2023-10-19T14:47:46;8.50;99.90
13572;DHT22;6857;53.484;10.216;2023-10-19T14:50:14;8.50;99.90
13572;DHT22;6857;53.484;10.216;2023-10-19T14:52:41;8.50;99.90
13572;DHT22;6857;53.484;10.216;2023-10-19T14:55:08;8.40;99.90
13572;DHT22;6857;53.484;10.216;2023-10-19T14:57:35;8.40;99.90
13572;DHT22;6857;53.484;10.216;2023-10-19T15:00:03;8.40;99.90
13572;DHT22;6857;53.484;10.216;2023-10-19T15:02:50;8.40;99.90
13572;DHT22;6857;53.484;10.216;2023-10-19T15:05:16;8.30;99.90
13572;DHT22;6857;53.484;10.216;2023-10-19T15:07:43;8.30;99.90
13572;DHT22;6857;53.484;10.216;2023-10-19T15:10:10;8.30;99.90
13572;DHT22;6857;53.484;10.216;2023-10-19T15:12:40;8.30;99.90
13572;DHT22;6857;53.484;10.216;2023-10-19T15:15:09;8.30;99.90
13572;DHT22;6857;53.484;10.216;2023-10-19T15:17:38;8.20;99.90
13572;DHT22;6857;53.484;10.216;2023-10-19T15:20:05;8.20;99.90
13572;DHT22;6857;53.484;10.216;2023-10-19T15:22:32;8.20;99.90
13572;DHT22;6857;53.484;10.216;2023-10-19T15:24:58;8.20;99.90
13572;DHT22;6857;53.484;10.216;2023-10-19T15:27:24;8.10;99.90
13572;DHT22;6857;53.484;10.216;2023-10-19T15:29:49;8.10;99.90
13572;DHT22;6857;53.484;10.216;2023-10-19T15:32:15;8.10;99.90
13572;DHT22;6857;53.484;10.216;2023-10-19T15:34:41;8.20;99.90
13572;DHT22;6857;53.484;10.216;2023-10-19T15:37:07;8.20;99.90
13572;DHT22;6857;53.484;10.216;2023-10-19T15:39:32;8.10;99.90
13572;DHT22;6857;53.484;10.216;2023-10-19T15:41:58;8.10;99.90
13572;DHT22;6857;53.484;10.216;2023-10-19T15:44:23;8.00;99.90
13572;DHT22;6857;53.484;10.216;2023-10-19T15:46:49;8.00;99.90
13572;DHT22;6857;53.484;10.216;2023-10-19T15:49:15;8.00;99.90
13572;DHT22;6857;53.484;10.216;2023-10-19T15:51:41;8.00;99.90
13572;DHT22;6857;53.484;10.216;2023-10-19T15:54:06;8.00;99.90
13572;DHT22;6857;53.484;10.216;2023-10-19T15:56:32;8.00;99.90
13572;DHT22;6857;53.484;10.216;2023-10-19T15:58:58;8.00;99.90
13572;DHT22;6857;53.484;10.216;2023-10-19T16:01:24;8.00;99.90
13572;DHT22;6857;53.484;10.216;2023-10-19T16:03:50;8.00;99.90
13572;DHT22;6857;53.484;10.216;2023-10-19T16:06:16;8.00;99.90
13572;DHT22;6857;53.484;10.216;2023-10-19T16:08:42;8.00;99.90
13572;DHT22;6857;53.484;10.216;2023-10-19T16:11:08;8.00;99.90